Time;durP1;ratioP1;P1;durP2;ratioP2;P2;SDS_P1;SDS_P2;PMS_P1;PMS_P2;Temp;Humidity;BMP_temperature;BMP_pressure;BME280_temperature;BME280_humidity;BME280_pressure;Samples;Min_cycle;Max_cycle;Signal;HPM_P1;HPM_P2
2021/06/18 00:01:41;;;;;;;7.07;4.40;;;;;;;21.46;65.28;100598.79;125446;1093;64201;-79
2021/06/18 00:04:09;;;;;;;5.73;5.00;;;;;;;21.43;65.31;100604.70;125280;1093;64396;-78
2021/06/18 00:06:36;;;;;;;5.77;4.33;;;;;;;21.40;65.50;100602.48;125282;1092;64293;-78
2021/06/18 00:09:04;;;;;;;6.07;4.80;;;;;;;21.38;65.81;100594.63;124946;1093;64266;-80
2021/06/18 00:11:31;;;;;;;5.93;4.53;;;;;;;21.39;65.45;100598.14;125304;1092;64441;-80
2021/06/18 00:13:58;;;;;;;7.60;4.60;;;;;;;21.36;65.51;100585.97;125674;1093;64291;-80
2021/06/18 00:16:25;;;;;;;6.93;4.27;;;;;;;21.35;65.78;100589.71;125362;1093;64230;-78
2021/06/18 00:18:52;;;;;;;6.43;5.03;;;;;;;21.34;65.60;100581.89;125285;1093;64403;-79
2021/06/18 00:21:19;;;;;;;5.93;4.57;;;;;;;21.31;65.85;100583.18;125402;1093;64173;-80
2021/06/18 00:23:46;;;;;;;6.03;4.73;;;;;;;21.28;65.88;100580.98;125536;1092;64303;-81
2021/06/18 00:26:13;;;;;;;7.23;5.07;;;;;;;21.25;66.47;100583.36;125243;1093;64269;-80
2021/06/18 00:28:42;;;;;;;9.13;5.77;;;;;;;21.22;66.13;100581.17;125547;1093;64317;-79
2021/06/18 00:31:10;;;;;;;7.63;5.77;;;;;;;21.17;65.79;100593.52;125908;1093;64281;-80
2021/06/18 00:33:37;;;;;;;7.70;5.80;;;;;;;21.12;65.97;100585.37;125186;1092;64323;-79
2021/06/18 00:36:05;;;;;;;6.90;5.00;;;;;;;21.06;66.85;100607.94;125620;1093;64413;-78
2021/06/18 00:38:32;;;;;;;7.87;4.97;;;;;;;20.98;68.51;100648.80;126279;1093;64284;-79
2021/06/18 00:40:59;;;;;;;6.25;4.90;;;;;;;20.85;68.82;100630.25;125890;1093;64386;-78
2021/06/18 00:43:26;;;;;;;5.70;4.83;;;;;;;20.76;68.38;100625.26;125594;1093;64310;-79
2021/06/18 00:45:56;;;;;;;6.43;4.53;;;;;;;20.72;68.71;100620.58;125028;1093;64285;-80
2021/06/18 00:48:26;;;;;;;6.93;4.47;;;;;;;20.69;69.25;100632.67;125233;1093;64323;-77
2021/06/18 00:50:53;;;;;;;4.70;3.87;;;;;;;20.67;69.17;100626.70;125136;1092;64345;-79
2021/06/18 00:53:20;;;;;;;8.50;5.03;;;;;;;20.66;69.01;100625.08;125330;1093;64249;-78
2021/06/18 00:55:48;;;;;;;7.27;5.57;;;;;;;20.65;68.83;100623.44;126519;1093;64172;-78
2021/06/18 00:58:16;;;;;;;8.83;4.90;;;;;;;20.63;68.72;100622.86;125944;1093;64391;-79
2021/06/18 01:00:44;;;;;;;6.50;5.07;;;;;;;20.62;68.48;100610.45;125693;1093;64422;-79
2021/06/18 01:03:12;;;;;;;8.20;5.30;;;;;;;20.62;68.75;100613.16;126577;1093;64282;-79
2021/06/18 01:05:41;;;;;;;9.17;5.93;;;;;;;20.60;68.93;100607.19;125993;1092;64268;-79
2021/06/18 01:08:22;;;;;;;10.20;5.30;;;;;;;20.59;68.68;100607.42;125492;1093;64339;-80
2021/06/18 01:10:52;;;;;;;6.33;4.83;;;;;;;20.59;69.19;100602.03;125606;1093;64211;-78
2021/06/18 01:13:37;;;;;;;6.70;4.60;;;;;;;20.59;69.03;100594.76;125096;1093;64327;-79
2021/06/18 01:16:22;;;;;;;9.07;4.87;;;;;;;20.60;69.00;100590.20;125136;1092;64204;-79
2021/06/18 01:18:58;;;;;;;6.60;5.17;;;;;;;20.61;69.05;100581.05;125619;1093;64274;-80
2021/06/18 01:21:35;;;;;;;11.87;6.27;;;;;;;20.61;69.29;100595.33;125558;1092;64317;-80
2021/06/18 01:24:35;;;;;;;9.07;5.60;;;;;;;20.59;69.26;100593.95;125487;1093;64320;-79
2021/06/18 01:27:31;;;;;;;6.47;5.40;;;;;;;20.56;69.05;100590.64;126006;1093;64454;-79
2021/06/18 01:30:07;;;;;;;8.63;5.70;;;;;;;20.53;69.50;100583.06;125095;1092;65430;-80
2021/06/18 01:33:04;;;;;;;7.07;4.60;;;;;;;20.51;69.82;100585.19;125790;1093;64287;-78
2021/06/18 01:35:37;;;;;;;8.05;5.50;;;;;;;20.47;70.13;100583.22;124931;1093;64292;-78
2021/06/18 01:38:08;;;;;;;9.80;5.37;;;;;;;20.45;69.74;100586.16;125426;1093;64285;-78
2021/06/18 01:40:36;;;;;;;7.07;5.27;;;;;;;20.43;69.78;100590.16;124851;1092;64352;-78
2021/06/18 01:43:07;;;;;;;9.83;5.70;;;;;;;20.41;70.01;100584.19;124929;1093;64208;-79
2021/06/18 01:45:35;;;;;;;7.70;5.40;;;;;;;20.39;70.46;100583.62;125236;1093;64406;-79
2021/06/18 01:48:05;;;;;;;9.43;4.93;;;;;;;20.35;70.06;100581.39;125357;1093;64737;-78
2021/06/18 01:50:33;;;;;;;7.43;5.10;;;;;;;20.34;70.48;100584.34;125072;1092;64326;-78
2021/06/18 01:53:13;;;;;;;7.43;5.80;;;;;;;20.30;70.54;100584.01;124979;1092;64282;-78
2021/06/18 01:55:42;;;;;;;8.73;5.57;;;;;;;20.29;70.31;100585.05;124963;1093;64374;-78
2021/06/18 01:58:11;;;;;;;6.40;4.97;;;;;;;20.26;70.39;100585.55;125201;1092;64316;-79
2021/06/18 02:00:42;;;;;;;7.77;5.30;;;;;;;20.23;70.33;100591.43;125136;1092;64200;-78
2021/06/18 02:03:14;;;;;;;7.70;5.00;;;;;;;20.22;70.52;100595.17;125527;1092;65504;-78
2021/06/18 02:05:42;;;;;;;6.33;5.37;;;;;;;20.23;70.51;100598.67;125070;1093;64396;-78
2021/06/18 02:08:11;;;;;;;5.67;5.07;;;;;;;20.24;70.83;100584.97;125478;1092;64281;-78
2021/06/18 02:10:41;;;;;;;9.50;5.25;;;;;;;20.26;71.06;100587.43;125236;1093;64323;-78
2021/06/18 02:13:10;;;;;;;7.87;5.03;;;;;;;20.29;71.07;100579.66;125327;1093;64690;-78
2021/06/18 02:15:39;;;;;;;7.57;4.80;;;;;;;20.30;71.38;100578.62;125280;1093;64304;-80
2021/06/18 02:18:11;;;;;;;7.47;5.50;;;;;;;20.32;70.92;100576.50;125173;1093;64308;-78
2021/06/18 02:20:39;;;;;;;6.57;5.43;;;;;;;20.34;71.13;100578.96;126344;1092;64245;-80
2021/06/18 02:23:09;;;;;;;6.53;5.17;;;;;;;20.33;70.83;100578.13;125291;1093;64288;-80
2021/06/18 02:25:38;;;;;;;8.40;5.60;;;;;;;20.33;71.19;100578.13;125524;1093;64211;-80
2021/06/18 02:28:08;;;;;;;7.50;6.10;;;;;;;20.34;71.20;100584.34;125160;1093;64336;-77
2021/06/18 02:30:36;;;;;;;6.70;5.43;;;;;;;20.32;71.27;100581.89;125289;1093;64230;-78
2021/06/18 02:33:10;;;;;;;7.53;5.87;;;;;;;20.33;71.72;100588.89;125048;1093;64381;-79
2021/06/18 02:35:39;;;;;;;;;;;;;;;20.34;71.87;100593.24;125235;1093;64287;-78
2021/06/18 02:38:08;;;;;;;8.53;6.23;;;;;;;20.33;71.71;100594.28;125256;1093;64301;-79
2021/06/18 02:40:35;;;;;;;6.77;6.03;;;;;;;20.32;72.22;100598.05;125476;1092;64285;-79
2021/06/18 02:43:04;;;;;;;9.20;5.95;;;;;;;20.30;72.17;100597.48;125043;1092;64371;-78
2021/06/18 02:45:31;;;;;;;6.23;5.60;;;;;;;20.28;72.77;100602.29;125284;1092;64301;-79
2021/06/18 02:48:22;;;;;;;7.30;6.10;;;;;;;20.25;72.50;100600.09;125400;1092;64282;-81
2021/06/18 02:51:05;;;;;;;9.13;6.43;;;;;;;20.21;72.48;100601.63;125168;1093;64672;-78
2021/06/18 02:53:45;;;;;;;9.37;6.73;;;;;;;20.18;72.67;100596.70;125030;1093;64262;-78
2021/06/18 02:56:29;;;;;;;6.77;6.00;;;;;;;20.16;72.65;100596.13;124999;1093;64381;-78
2021/06/18 02:59:09;;;;;;;7.88;5.68;;;;;;;20.13;72.99;100602.01;124965;1093;64286;-78
2021/06/18 03:01:38;;;;;;;6.73;5.47;;;;;;;20.09;73.15;100604.36;124960;1093;64387;-78
2021/06/18 03:04:10;;;;;;;10.30;5.77;;;;;;;20.06;72.90;100604.01;125274;1092;64227;-78
2021/06/18 03:06:40;;;;;;;8.53;6.57;;;;;;;20.05;73.55;100599.70;124932;1092;64700;-78
2021/06/18 03:09:10;;;;;;;9.83;6.83;;;;;;;20.02;74.47;100608.23;125407;1092;64803;-78
2021/06/18 03:11:41;;;;;;;7.20;6.40;;;;;;;20.00;74.23;100602.27;125170;1092;64303;-78
2021/06/18 03:14:17;;;;;;;11.27;7.13;;;;;;;19.98;74.75;100596.31;125245;1093;64314;-78
2021/06/18 03:16:48;;;;;;;10.03;6.63;;;;;;;19.98;74.72;100596.31;125051;1093;64180;-78
2021/06/18 03:19:19;;;;;;;8.00;5.83;;;;;;;19.98;75.08;100599.00;125280;1092;64307;-78
2021/06/18 03:21:49;;;;;;;8.43;6.13;;;;;;;19.96;75.29;100604.65;125152;1093;64425;-79
2021/06/18 03:24:18;;;;;;;9.57;6.77;;;;;;;19.98;75.39;100607.08;125134;1093;64346;-79
2021/06/18 03:26:45;;;;;;;8.07;5.97;;;;;;;20.00;74.94;100607.66;125285;1093;64301;-80
2021/06/18 03:29:14;;;;;;;7.33;6.40;;;;;;;20.02;75.07;100602.85;125378;1092;64304;-79
2021/06/18 03:31:43;;;;;;;11.35;6.55;;;;;;;20.03;75.23;100609.89;125393;1093;64240;-78
2021/06/18 03:34:11;;;;;;;13.63;6.77;;;;;;;20.03;75.14;100612.58;125060;1093;64339;-78
2021/06/18 03:36:39;;;;;;;10.13;5.73;;;;;;;20.00;75.17;100605.81;125167;1092;64376;-80
2021/06/18 03:39:07;;;;;;;11.03;5.30;;;;;;;20.00;74.88;100610.35;125649;1093;64348;-78
2021/06/18 03:41:34;;;;;;;6.83;5.60;;;;;;;20.00;75.12;100610.35;125370;1093;64220;-78
2021/06/18 03:44:02;;;;;;;9.60;6.27;;;;;;;20.01;75.15;100612.00;125113;1093;64287;-78
2021/06/18 03:46:30;;;;;;;8.17;5.37;;;;;;;20.00;75.03;100605.81;124933;1093;64298;-77
2021/06/18 03:49:00;;;;;;;9.33;6.30;;;;;;;19.99;75.12;100608.73;125396;1093;64293;-79
2021/06/18 03:51:28;;;;;;;10.45;6.50;;;;;;;19.97;75.15;100600.88;125499;1093;64239;-79
2021/06/18 03:53:57;;;;;;;10.43;6.47;;;;;;;19.96;75.28;100608.15;125158;1092;64230;-81
2021/06/18 03:56:24;;;;;;;10.90;6.47;;;;;;;20.00;75.50;100611.19;125124;1092;64295;-81
2021/06/18 03:58:53;;;;;;;10.10;6.80;;;;;;;20.03;75.21;100609.89;125232;1093;64298;-81
2021/06/18 04:01:21;;;;;;;9.57;6.43;;;;;;;20.06;76.00;100614.78;125146;1093;65327;-81
2021/06/18 04:03:51;;;;;;;9.17;6.20;;;;;;;20.09;75.92;100619.70;126897;1093;62255;-82
2021/06/18 04:06:20;;;;;;;8.25;5.90;;;;;;;20.13;75.86;100621.67;125909;1093;64326;-83
2021/06/18 04:08:48;;;;;;;6.77;5.67;;;;;;;20.17;75.96;100619.33;124992;1093;64371;-83
2021/06/18 04:11:16;;;;;;;11.03;6.33;;;;;;;20.22;75.73;100623.98;125138;1092;64348;-84
2021/06/18 04:13:44;;;;;;;11.27;4.83;;;;;;;20.25;76.15;100624.33;124850;1093;64265;-80
2021/06/18 04:16:12;;;;;;;14.20;7.23;;;;;;;20.29;75.22;100614.68;124983;1092;64304;-80
2021/06/18 04:18:46;;;;;;;9.03;6.17;;;;;;;20.35;75.34;100607.52;125270;1093;64770;-83
2021/06/18 04:21:19;;;;;;;8.67;6.27;;;;;;;20.39;75.20;100603.28;124856;1093;64233;-81
2021/06/18 04:23:47;;;;;;;9.97;5.43;;;;;;;20.41;75.56;100608.44;125093;1092;64297;-81
2021/06/18 04:26:15;;;;;;;6.17;4.40;;;;;;;20.43;75.63;100600.94;124874;1093;64300;-80
2021/06/18 04:28:42;;;;;;;7.97;5.30;;;;;;;20.43;75.64;100592.85;125162;1093;64304;-81
2021/06/18 04:31:09;;;;;;;9.30;6.05;;;;;;;20.45;75.60;100596.13;125197;1093;64351;-79
2021/06/18 04:33:37;;;;;;;8.43;6.20;;;;;;;20.51;75.44;100592.45;125286;1093;64264;-80
2021/06/18 04:36:05;;;;;;;11.57;6.27;;;;;;;20.58;75.35;100593.14;125326;1093;64668;-79
2021/06/18 04:38:32;;;;;;;11.00;6.20;;;;;;;20.67;74.90;100594.36;126966;1092;64235;-80
2021/06/18 04:40:59;;;;;;;9.10;5.53;;;;;;;20.75;74.66;100593.95;124939;1093;64354;-78
2021/06/18 04:43:27;;;;;;;7.23;5.37;;;;;;;20.86;74.90;100591.42;124890;1093;64472;-80
2021/06/18 04:45:54;;;;;;;6.43;5.43;;;;;;;20.93;73.83;100598.30;124875;1092;64247;-78
2021/06/18 04:48:21;;;;;;;7.30;4.90;;;;;;;20.99;74.28;100596.48;124979;1093;64339;-78
2021/06/18 04:50:49;;;;;;;10.07;5.77;;;;;;;21.06;73.69;100602.54;125220;1093;64354;-79
2021/06/18 04:53:16;;;;;;;8.70;5.80;;;;;;;21.13;73.78;100603.17;124925;1093;64473;-79
2021/06/18 04:55:48;;;;;;;9.37;6.63;;;;;;;21.21;73.48;100609.20;124801;1093;65432;-80
2021/06/18 04:58:16;;;;;;;12.03;5.77;;;;;;;21.29;73.21;100616.88;124821;1093;64285;-79
2021/06/18 05:00:43;;;;;;;8.93;5.43;;;;;;;21.40;73.42;100618.67;124736;1093;64415;-79
2021/06/18 05:03:13;;;;;;;8.90;5.50;;;;;;;21.50;72.93;100618.81;124930;1093;64282;-78
2021/06/18 05:05:39;;;;;;;9.75;5.40;;;;;;;21.58;72.44;100615.69;124784;1093;64316;-79
2021/06/18 05:08:06;;;;;;;10.65;6.20;;;;;;;21.64;71.99;100618.47;125009;1093;64285;-71
2021/06/18 05:10:34;;;;;;;8.50;4.73;;;;;;;21.66;72.12;100613.64;124868;1092;64265;-74
2021/06/18 05:13:01;;;;;;;7.47;5.10;;;;;;;21.69;72.19;100621.23;124663;1093;64272;-72
2021/06/18 05:15:28;;;;;;;7.67;5.13;;;;;;;21.72;71.96;100618.05;124898;1093;64291;-74
2021/06/18 05:17:55;;;;;;;6.03;4.33;;;;;;;21.75;71.88;100621.03;125016;1093;64317;-72
2021/06/18 05:20:23;;;;;;;9.67;5.83;;;;;;;21.81;71.52;100626.52;124704;1092;64331;-72
2021/06/18 05:22:50;;;;;;;7.87;5.70;;;;;;;21.91;71.37;100619.35;125063;1093;64253;-72
2021/06/18 05:25:17;;;;;;;10.17;5.83;;;;;;;22.01;71.15;100621.34;124886;1093;64416;-71
2021/06/18 05:27:44;;;;;;;10.67;6.20;;;;;;;22.12;70.67;100616.86;124859;1093;64310;-72
2021/06/18 05:30:12;;;;;;;11.75;6.30;;;;;;;22.20;70.26;100621.81;124875;1093;64293;-72
2021/06/18 05:32:45;;;;;;;8.43;5.50;;;;;;;22.25;70.35;100624.63;124815;1092;64285;-72
2021/06/18 05:35:13;;;;;;;9.45;6.15;;;;;;;22.35;69.90;100622.00;124820;1093;64323;-72
2021/06/18 05:37:40;;;;;;;8.83;7.17;;;;;;;22.46;69.60;100619.40;124881;1093;64293;-73
2021/06/18 05:40:08;;;;;;;8.10;5.50;;;;;;;22.55;69.59;100615.18;124817;1093;64208;-72
2021/06/18 05:42:36;;;;;;;7.40;5.77;;;;;;;22.68;69.11;100616.64;125054;1093;64953;-72
2021/06/18 05:45:07;;;;;;;9.13;4.93;;;;;;;22.78;68.81;100622.95;124847;1093;64307;-73
2021/06/18 05:47:34;;;;;;;8.93;5.63;;;;;;;22.92;68.91;100619.80;124787;1093;64323;-73
2021/06/18 05:50:07;;;;;;;8.87;5.73;;;;;;;23.04;68.06;100627.78;124841;1093;64362;-72
2021/06/18 05:52:34;;;;;;;8.57;6.13;;;;;;;23.16;67.96;100628.38;125006;1092;64262;-74
2021/06/18 05:55:02;;;;;;;11.50;6.37;;;;;;;23.28;67.47;100630.91;124716;1093;64351;-72
2021/06/18 05:57:29;;;;;;;8.00;5.50;;;;;;;23.36;67.23;100638.54;124649;1093;64323;-72
2021/06/18 05:59:56;;;;;;;8.40;4.90;;;;;;;23.39;67.17;100643.41;124808;1093;64300;-72
2021/06/18 06:02:24;;;;;;;11.40;6.17;;;;;;;23.40;66.76;100639.65;124788;1093;64923;-73
2021/06/18 06:04:51;;;;;;;9.13;6.60;;;;;;;23.46;66.68;100644.02;124894;1093;64310;-72
2021/06/18 06:07:19;;;;;;;9.65;5.50;;;;;;;23.53;66.38;100643.78;125015;1093;64284;-72
2021/06/18 06:09:46;;;;;;;9.00;6.27;;;;;;;23.63;65.67;100640.29;124830;1093;64301;-72
2021/06/18 06:12:13;;;;;;;10.40;6.00;;;;;;;23.72;65.69;100644.95;124835;1093;64259;-71
2021/06/18 06:14:41;;;;;;;7.37;5.50;;;;;;;23.81;65.70;100648.81;124814;1093;64445;-73
2021/06/18 06:17:07;;;;;;;7.65;5.85;;;;;;;23.91;65.36;100655.37;125074;1093;64351;-71
2021/06/18 06:19:35;;;;;;;6.97;5.47;;;;;;;24.00;65.38;100654.58;124788;1092;64840;-71
2021/06/18 06:22:02;;;;;;;28.40;21.35;;;;;;;24.08;65.31;100650.55;124825;1091;64297;-71
2021/06/18 06:24:29;;;;;;;11.33;5.90;;;;;;;24.18;64.57;100653.30;124843;1092;64291;-71
2021/06/18 06:26:56;;;;;;;10.93;6.03;;;;;;;24.25;64.54;100647.61;124634;1093;64400;-72
2021/06/18 06:29:23;;;;;;;9.07;5.60;;;;;;;24.36;63.76;100646.55;124806;1092;64413;-72
2021/06/18 06:31:50;;;;;;;11.40;7.87;;;;;;;24.48;63.79;100646.31;124594;1093;64789;-72
2021/06/18 06:34:17;;;;;;;10.03;7.00;;;;;;;24.60;63.26;100640.64;124730;1093;64320;-71
2021/06/18 06:36:45;;;;;;;11.23;6.23;;;;;;;24.73;62.53;100636.58;124848;1093;64682;-73
2021/06/18 06:39:12;;;;;;;9.57;5.33;;;;;;;24.82;61.98;100637.66;124869;1093;64374;-72
2021/06/18 06:41:39;;;;;;;13.03;8.73;;;;;;;24.91;62.66;100629.81;124847;1093;64322;-72
2021/06/18 06:44:06;;;;;;;10.13;6.80;;;;;;;25.00;62.10;100633.59;124654;1093;64362;-72
2021/06/18 06:46:34;;;;;;;9.60;5.67;;;;;;;25.14;62.56;100626.52;124771;1092;64295;-71
2021/06/18 06:49:01;;;;;;;11.55;7.05;;;;;;;25.25;61.58;100627.34;124840;1092;64249;-71
2021/06/18 06:51:28;;;;;;;11.13;6.60;;;;;;;25.39;61.12;100624.86;124839;1093;64325;-72
2021/06/18 06:53:55;;;;;;;12.80;7.00;;;;;;;25.47;60.67;100621.58;124663;1093;65510;-71
2021/06/18 06:56:23;;;;;;;8.23;5.50;;;;;;;25.53;59.19;100614.23;124900;1092;64239;-71
2021/06/18 06:58:54;;;;;;;6.40;5.67;;;;;;;25.59;58.53;100619.38;124863;1093;64298;-72
2021/06/18 07:01:21;;;;;;;8.00;5.30;;;;;;;25.69;59.30;100628.56;124882;1093;64301;-71
2021/06/18 07:03:48;;;;;;;7.63;5.67;;;;;;;25.76;58.13;100627.19;124824;1093;64329;-72
2021/06/18 07:06:15;;;;;;;7.93;5.33;;;;;;;25.88;57.59;100629.56;125014;1093;64389;-72
2021/06/18 07:08:43;;;;;;;8.27;6.83;;;;;;;25.98;57.59;100631.46;124798;1093;65072;-72
2021/06/18 07:11:10;;;;;;;7.40;4.55;;;;;;;26.09;58.14;100624.06;124787;1093;64332;-71
2021/06/18 07:13:37;;;;;;;8.20;5.05;;;;;;;26.16;56.91;100624.55;124746;1092;65508;-71
2021/06/18 07:16:04;;;;;;;9.63;7.27;;;;;;;26.23;56.24;100633.23;124744;1092;64435;-71
2021/06/18 07:18:35;;;;;;;8.50;5.50;;;;;;;26.34;56.03;100634.78;124832;1093;64258;-70
2021/06/18 07:21:03;;;;;;;6.17;4.87;;;;;;;26.43;56.08;100632.27;124853;1093;64309;-71
2021/06/18 07:23:30;;;;;;;8.87;5.20;;;;;;;26.54;55.26;100633.02;124884;1093;64288;-71
2021/06/18 07:25:58;;;;;;;15.60;11.23;;;;;;;26.62;55.41;100630.52;124863;1093;64461;-71
2021/06/18 07:28:26;;;;;;;29.93;22.03;;;;;;;26.73;55.10;100630.45;124995;1093;64300;-71
2021/06/18 07:30:53;;;;;;;7.67;5.53;;;;;;;26.74;54.56;100641.06;124803;1093;65376;-72
2021/06/18 07:33:20;;;;;;;14.57;11.87;;;;;;;26.77;54.45;100637.75;124812;1093;64227;-71
2021/06/18 07:35:47;;;;;;;7.30;4.93;;;;;;;26.83;54.38;100636.62;124653;1093;64279;-72
2021/06/18 07:38:14;;;;;;;7.90;5.53;;;;;;;26.89;54.39;100629.23;124850;1093;64277;-72
2021/06/18 07:40:41;;;;;;;6.20;5.23;;;;;;;27.00;54.65;100630.75;124822;1093;64297;-72
2021/06/18 07:43:09;;;;;;;13.67;8.83;;;;;;;27.13;54.01;100628.46;125071;1093;64413;-72
2021/06/18 07:45:36;;;;;;;8.17;5.37;;;;;;;27.26;53.91;100633.25;124681;1093;65136;-73
2021/06/18 07:48:08;;;;;;;7.53;5.40;;;;;;;27.43;52.97;100630.08;124645;1092;64390;-72
2021/06/18 07:50:38;;;;;;;9.27;6.27;;;;;;;27.56;52.39;100634.81;124972;1093;64274;-72
2021/06/18 07:53:05;;;;;;;7.85;7.00;;;;;;;27.69;52.21;100624.33;125245;1093;64329;-71
2021/06/18 07:55:32;;;;;;;9.17;6.90;;;;;;;27.75;51.68;100618.52;124916;1093;64265;-72
2021/06/18 07:57:59;;;;;;;6.95;4.95;;;;;;;27.82;51.42;100620.91;124856;1093;64301;-71
2021/06/18 08:00:26;;;;;;;6.35;5.25;;;;;;;27.93;51.33;100616.16;124694;1093;64237;-72
2021/06/18 08:02:54;;;;;;;8.30;5.70;;;;;;;28.01;50.81;100610.86;124873;1093;64250;-71
2021/06/18 08:05:21;;;;;;;9.73;6.53;;;;;;;28.12;50.66;100616.17;124698;1093;64464;-71
2021/06/18 08:07:48;;;;;;;10.00;6.63;;;;;;;28.23;50.89;100612.18;124832;1093;64285;-72
2021/06/18 08:10:16;;;;;;;8.40;7.43;;;;;;;28.33;50.05;100606.58;124885;1093;64272;-72
2021/06/18 08:12:46;;;;;;;10.70;9.33;;;;;;;28.42;49.95;100602.06;124623;1093;64252;-71
2021/06/18 08:15:15;;;;;;;12.87;8.33;;;;;;;28.51;49.88;100602.22;124945;1093;64292;-71
2021/06/18 08:17:43;;;;;;;7.80;6.30;;;;;;;28.64;49.45;100595.19;125104;1092;64400;-71
2021/06/18 08:20:13;;;;;;;8.33;5.40;;;;;;;28.79;49.14;100603.11;124840;1093;64343;-71
2021/06/18 08:22:41;;;;;;;9.43;5.07;;;;;;;28.94;48.54;100603.95;124807;1092;64315;-73
2021/06/18 08:25:09;;;;;;;6.40;4.87;;;;;;;28.99;47.70;100599.22;124870;1093;64301;-72
2021/06/18 08:27:37;;;;;;;11.43;7.37;;;;;;;29.06;47.81;100598.82;124925;1093;64661;-73
2021/06/18 08:30:06;;;;;;;14.70;12.03;;;;;;;29.17;47.73;100596.73;124847;1093;64895;-72
2021/06/18 08:32:49;;;;;;;9.40;7.10;;;;;;;29.26;47.55;100593.02;124860;1093;64352;-71
2021/06/18 08:35:16;;;;;;;7.87;5.17;;;;;;;29.37;47.38;100595.52;124730;1093;64291;-71
2021/06/18 08:37:43;;;;;;;9.23;7.73;;;;;;;29.47;45.77;100596.12;124896;1093;64262;-73
2021/06/18 08:40:11;;;;;;;7.60;5.23;;;;;;;29.49;44.82;100587.63;124666;1093;64300;-71
2021/06/18 08:42:40;;;;;;;7.53;5.00;;;;;;;29.58;46.19;100599.48;124881;1093;64382;-72
2021/06/18 08:45:09;;;;;;;7.90;4.75;;;;;;;29.67;46.02;100592.17;124856;1093;64301;-71
2021/06/18 08:47:37;;;;;;;5.73;4.10;;;;;;;29.75;44.17;100585.19;124643;1093;64934;-72
2021/06/18 08:50:06;;;;;;;11.63;4.60;;;;;;;29.80;45.11;100582.35;124881;1093;64421;-72
2021/06/18 08:52:38;;;;;;;4.77;4.10;;;;;;;29.95;45.79;100581.20;124887;1093;64262;-72
2021/06/18 08:55:06;;;;;;;6.30;4.53;;;;;;;30.07;47.46;100570.53;124892;1093;64437;-73
2021/06/18 08:57:36;;;;;;;5.07;4.37;;;;;;;30.22;47.97;100572.09;124945;1093;64368;-74
2021/06/18 09:00:04;;;;;;;5.77;4.30;;;;;;;30.35;47.19;100562.24;124742;1092;64297;-74
2021/06/18 09:02:31;;;;;;;9.03;3.87;;;;;;;30.42;47.36;100567.27;124989;1093;64789;-73
2021/06/18 09:04:59;;;;;;;5.10;3.93;;;;;;;30.58;46.36;100564.95;124707;1093;64233;-73
2021/06/18 09:07:26;;;;;;;6.23;3.33;;;;;;;30.72;44.94;100568.42;124869;1092;64304;-73
2021/06/18 09:09:53;;;;;;;5.85;4.15;;;;;;;30.87;44.56;100556.28;124933;1093;64262;-74
2021/06/18 09:12:20;;;;;;;3.80;3.40;;;;;;;31.04;45.48;100558.29;124733;1093;65027;-72
2021/06/18 09:14:47;;;;;;;5.60;3.40;;;;;;;31.22;44.68;100564.63;124796;1093;64901;-72
2021/06/18 09:17:20;;;;;;;5.30;3.95;;;;;;;31.37;44.04;100563.38;125187;1093;64258;-74
2021/06/18 09:19:56;;;;;;;5.75;3.35;;;;;;;31.42;44.57;100563.25;124746;1093;64285;-74
2021/06/18 09:22:36;;;;;;;4.33;3.23;;;;;;;31.54;43.15;100563.48;124846;1093;64349;-74
2021/06/18 09:25:10;;;;;;;5.63;3.97;;;;;;;31.64;42.04;100557.66;124645;1092;64447;-74
2021/06/18 09:28:03;;;;;;;5.73;3.50;;;;;;;31.78;42.53;100562.22;124664;1093;64760;-72
2021/06/18 09:30:48;;;;;;;4.05;3.60;;;;;;;31.94;42.54;100557.84;124792;1092;64288;-73
2021/06/18 09:33:23;;;;;;;4.07;3.17;;;;;;;32.06;43.39;100555.30;124593;1093;64351;-73
2021/06/18 09:36:05;;;;;;;7.25;3.60;;;;;;;32.15;42.95;100565.47;124947;1093;64435;-72
2021/06/18 09:38:46;;;;;;;6.87;3.80;;;;;;;32.24;43.13;100567.09;124861;1093;64211;-73
2021/06/18 09:41:33;;;;;;;4.73;3.83;;;;;;;32.39;43.26;100573.19;124775;1093;64307;-72
2021/06/18 09:44:04;;;;;;;5.27;3.23;;;;;;;32.52;43.01;100569.47;124846;1093;64400;-73
2021/06/18 09:46:46;;;;;;;6.50;3.70;;;;;;;32.53;42.35;100573.02;124785;1093;64300;-73
2021/06/18 09:49:33;;;;;;;5.17;3.00;;;;;;;32.61;42.85;100574.97;124848;1093;64317;-74
2021/06/18 09:52:06;;;;;;;6.33;3.47;;;;;;;32.76;41.68;100566.19;124873;1093;64434;-72
2021/06/18 09:54:42;;;;;;;3.70;3.10;;;;;;;32.89;41.96;100564.38;124776;1093;64245;-73
2021/06/18 09:57:18;;;;;;;6.03;4.10;;;;;;;33.04;41.11;100566.56;124893;1093;64315;-72
2021/06/18 09:59:46;;;;;;;4.70;3.40;;;;;;;33.17;40.36;100562.01;124935;1092;64233;-75
2021/06/18 10:02:13;;;;;;;5.30;3.60;;;;;;;33.30;41.07;100566.48;124715;1093;64284;-75
2021/06/18 10:04:41;;;;;;;6.07;3.50;;;;;;;33.44;39.93;100557.98;125190;1093;64938;-73
2021/06/18 10:07:10;;;;;;;4.77;3.07;;;;;;;33.51;40.25;100565.70;124825;1093;64285;-73
2021/06/18 10:09:38;;;;;;;4.83;2.60;;;;;;;33.61;39.68;100562.59;124936;1093;64296;-73
2021/06/18 10:12:06;;;;;;;5.90;2.90;;;;;;;33.68;38.13;100562.06;124912;1092;64323;-73
2021/06/18 10:14:35;;;;;;;7.60;3.60;;;;;;;33.76;39.00;100563.15;125005;1093;64365;-73
2021/06/18 10:17:02;;;;;;;5.53;3.20;;;;;;;33.83;39.95;100555.16;124840;1092;64661;-73
2021/06/18 10:19:32;;;;;;;3.87;3.00;;;;;;;33.91;39.51;100576.30;124876;1093;64262;-73
2021/06/18 10:22:10;;;;;;;4.40;3.00;;;;;;;33.92;39.15;100561.41;124825;1093;64264;-71
2021/06/18 10:24:42;;;;;;;4.83;3.30;;;;;;;33.99;38.95;100550.66;124874;1093;64444;-73
2021/06/18 10:27:13;;;;;;;5.10;3.07;;;;;;;34.11;38.90;100552.67;124868;1093;64323;-73
2021/06/18 10:29:41;;;;;;;7.90;3.65;;;;;;;34.17;37.38;100556.03;124870;1091;64282;-76
2021/06/18 10:32:27;;;;;;;4.63;3.10;;;;;;;34.09;34.04;100544.73;124922;1093;64288;-74
2021/06/18 10:34:58;;;;;;;5.90;2.43;;;;;;;34.10;34.22;100551.84;124920;1093;64300;-75
2021/06/18 10:37:31;;;;;;;4.83;2.57;;;;;;;34.20;33.86;100541.60;124925;1092;64479;-75
2021/06/18 10:40:06;;;;;;;5.03;2.90;;;;;;;34.32;34.77;100549.88;124815;1093;64285;-72
2021/06/18 10:42:33;;;;;;;4.53;2.80;;;;;;;34.45;33.51;100554.30;124938;1093;64296;-76
2021/06/18 10:45:00;;;;;;;6.43;3.33;;;;;;;34.49;35.19;100546.97;124730;1093;64300;-76
2021/06/18 10:47:31;;;;;;;6.13;3.20;;;;;;;34.60;35.50;100547.33;124726;1093;64307;-75
2021/06/18 10:49:59;;;;;;;7.37;3.00;;;;;;;34.67;32.81;100538.53;124985;1093;64293;-75
2021/06/18 10:52:38;;;;;;;7.93;2.48;;;;;;;34.67;31.08;100546.80;124927;1093;64385;-77
2021/06/18 10:55:06;;;;;;;3.85;3.00;;;;;;;34.64;31.64;100536.45;124868;1093;64330;-74
2021/06/18 10:57:36;;;;;;;6.73;3.50;;;;;;;34.58;31.60;100537.78;124902;1093;64307;-73
2021/06/18 11:00:09;;;;;;;4.80;2.60;;;;;;;34.65;32.45;100543.58;124841;1092;64380;-73
2021/06/18 11:02:39;;;;;;;4.63;3.00;;;;;;;34.75;30.83;100542.31;124854;1093;64355;-75
2021/06/18 11:05:15;;;;;;;5.07;3.00;;;;;;;34.78;31.52;100545.20;124901;1093;64410;-73
2021/06/18 11:07:43;;;;;;;3.30;2.57;;;;;;;34.81;32.02;100541.77;124892;1093;64282;-74
2021/06/18 11:10:26;;;;;;;2.83;2.30;;;;;;;34.88;31.88;100542.00;124868;1093;64282;-74
2021/06/18 11:13:03;;;;;;;5.10;2.63;;;;;;;35.05;31.32;100540.97;124898;1093;64307;-72
2021/06/18 11:15:30;;;;;;;3.87;2.40;;;;;;;35.12;31.40;100545.91;125004;1093;64344;-72
2021/06/18 11:18:01;;;;;;;4.67;2.50;;;;;;;35.23;31.75;100540.76;124863;1093;64635;-74
2021/06/18 11:20:35;;;;;;;6.00;3.20;;;;;;;35.30;30.48;100530.77;125332;1093;64751;-73
2021/06/18 11:23:05;;;;;;;3.83;2.58;;;;;;;35.37;29.49;100532.94;125057;1093;64311;-73
2021/06/18 11:25:39;;;;;;;4.17;2.80;;;;;;;35.28;30.06;100533.06;124893;1092;65407;-73
2021/06/18 11:28:27;;;;;;;4.93;2.90;;;;;;;35.29;29.92;100534.66;124865;1093;64208;-73
2021/06/18 11:31:06;;;;;;;3.25;2.70;;;;;;;35.33;30.02;100529.27;124927;1093;64282;-74